createdAt,value
2017-03-14T00:00:07.218Z,0
2017-03-14T00:01:07.187Z,0
2017-03-14T00:02:06.993Z,0
2017-03-14T00:03:07.361Z,0
2017-03-14T00:04:07.142Z,0
2017-03-14T00:05:07.098Z,0
2017-03-14T00:06:07.074Z,0
2017-03-14T00:07:07.058Z,0
2017-03-14T00:08:07.035Z,0
2017-03-14T00:09:07.030Z,0
2017-03-14T00:10:07.008Z,0
2017-03-14T00:11:06.993Z,0
2017-03-14T00:12:06.959Z,0
2017-03-14T00:13:06.914Z,0
2017-03-14T00:14:06.907Z,0
2017-03-14T00:15:06.889Z,0
2017-03-14T00:16:06.855Z,0
2017-03-14T00:17:06.851Z,0
2017-03-14T00:18:06.828Z,0
2017-03-14T00:19:06.800Z,0
2017-03-14T00:20:06.766Z,0
2017-03-14T00:21:06.757Z,0
2017-03-14T00:22:06.734Z,0
2017-03-14T00:23:06.709Z,0
2017-03-14T00:24:06.678Z,0
2017-03-14T00:25:06.668Z,0
2017-03-14T00:26:06.632Z,0
2017-03-14T00:27:06.654Z,0
2017-03-14T00:28:06.594Z,0
2017-03-14T00:29:06.583Z,0
2017-03-14T00:30:06.168Z,0
2017-03-14T00:31:06.390Z,0
2017-03-14T00:32:06.107Z,0
2017-03-14T00:33:06.496Z,0
2017-03-14T00:34:06.475Z,0
2017-03-14T00:35:06.429Z,0
2017-03-14T00:36:06.396Z,0
2017-03-14T00:37:06.398Z,0
2017-03-14T00:38:06.393Z,0
2017-03-14T00:39:06.357Z,0
2017-03-14T00:40:05.951Z,0
2017-03-14T00:41:06.322Z,0
2017-03-14T00:42:06.282Z,0
2017-03-14T00:43:06.258Z,0
2017-03-14T00:44:06.238Z,0
2017-03-14T00:45:05.843Z,0
2017-03-14T00:46:06.206Z,0
2017-03-14T00:47:05.794Z,0
2017-03-14T00:48:06.153Z,0
2017-03-14T00:49:06.139Z,0
2017-03-14T00:50:06.099Z,0
2017-03-14T00:51:06.080Z,0
2017-03-14T00:52:06.064Z,0
2017-03-14T00:53:06.048Z,0
2017-03-14T00:54:06.030Z,0
2017-03-14T00:55:05.993Z,0
2017-03-14T00:56:05.987Z,0
2017-03-14T00:57:05.959Z,0
2017-03-14T00:58:05.921Z,0
2017-03-14T00:59:05.885Z,0
2017-03-14T01:00:05.878Z,0
2017-03-14T01:01:05.876Z,0
2017-03-14T01:02:05.465Z,0
2017-03-14T01:03:05.823Z,0
2017-03-14T01:04:05.794Z,0
2017-03-14T01:05:05.766Z,0
2017-03-14T01:06:05.754Z,0
2017-03-14T01:07:05.331Z,0
2017-03-14T01:08:05.707Z,0
2017-03-14T01:09:05.687Z,0
2017-03-14T01:10:05.256Z,0
2017-03-14T01:11:05.252Z,0
2017-03-14T01:12:05.232Z,0
2017-03-14T01:13:05.600Z,0
2017-03-14T01:14:05.169Z,0
2017-03-14T01:15:05.152Z,0
2017-03-14T01:16:05.530Z,0
2017-03-14T01:17:05.110Z,0
2017-03-14T01:18:05.472Z,0
2017-03-14T01:19:05.458Z,0
2017-03-14T01:20:05.045Z,0
2017-03-14T01:21:05.400Z,0
2017-03-14T01:22:05.005Z,0
2017-03-14T01:23:05.359Z,0
2017-03-14T01:24:05.317Z,0
2017-03-14T01:25:05.313Z,0
2017-03-14T01:26:05.306Z,0
2017-03-14T01:27:05.281Z,0
2017-03-14T01:28:04.880Z,0
2017-03-14T01:29:05.236Z,0
2017-03-14T01:30:05.203Z,0
2017-03-14T01:31:05.201Z,0
2017-03-14T01:32:04.772Z,0
2017-03-14T01:33:05.156Z,0
2017-03-14T01:34:05.120Z,0
2017-03-14T01:35:04.730Z,0
2017-03-14T01:36:04.683Z,0
2017-03-14T01:37:05.073Z,0
2017-03-14T01:38:05.025Z,0
2017-03-14T01:39:05.015Z,0
2017-03-14T01:40:04.994Z,0
2017-03-14T01:41:04.989Z,0
2017-03-14T01:42:04.923Z,0
2017-03-14T01:43:04.921Z,0
2017-03-14T01:44:04.501Z,0
2017-03-14T01:45:04.869Z,0
2017-03-14T01:46:04.846Z,0
2017-03-14T01:47:04.874Z,0
2017-03-14T01:48:04.427Z,0
2017-03-14T01:49:04.785Z,0
2017-03-14T01:50:04.772Z,0
2017-03-14T01:51:04.752Z,0
2017-03-14T01:52:04.334Z,0
2017-03-14T01:53:04.716Z,0
2017-03-14T01:54:04.668Z,0
2017-03-14T01:55:04.674Z,0
2017-03-14T01:56:04.640Z,0
2017-03-14T01:57:04.614Z,0
2017-03-14T01:58:04.566Z,0
2017-03-14T01:59:04.583Z,0
2017-03-14T02:00:04.544Z,0
2017-03-14T02:01:04.518Z,0
2017-03-14T02:02:04.493Z,0
2017-03-14T02:03:04.484Z,0
2017-03-14T02:04:04.459Z,0
2017-03-14T02:05:04.435Z,0
2017-03-14T02:06:04.418Z,0
2017-03-14T02:07:04.005Z,0
2017-03-14T02:08:04.370Z,0
2017-03-14T02:09:04.327Z,0
2017-03-14T02:10:04.303Z,0
2017-03-14T02:11:04.309Z,0
2017-03-14T02:12:04.287Z,0
2017-03-14T02:13:04.259Z,0
2017-03-14T02:14:04.247Z,0
2017-03-14T02:15:04.203Z,0
2017-03-14T02:16:04.204Z,0
2017-03-14T02:17:04.158Z,0
2017-03-14T02:18:04.185Z,0
2017-03-14T02:19:04.130Z,0
2017-03-14T02:20:04.102Z,0
2017-03-14T02:21:04.090Z,0
2017-03-14T02:22:04.035Z,0
2017-03-14T02:23:04.012Z,0
2017-03-14T02:24:04.016Z,0
2017-03-14T02:25:03.585Z,0
2017-03-14T02:26:03.592Z,0
2017-03-14T02:27:03.962Z,0
2017-03-14T02:28:03.934Z,0
2017-03-14T02:29:03.901Z,0
2017-03-14T02:30:03.876Z,0
2017-03-14T02:31:03.851Z,0
2017-03-14T02:32:03.821Z,0
2017-03-14T02:33:03.808Z,0
2017-03-14T02:34:03.412Z,0
2017-03-14T02:35:02.974Z,0
2017-03-14T02:36:03.758Z,0
2017-03-14T02:37:03.335Z,0
2017-03-14T02:38:03.710Z,0
2017-03-14T02:39:02.902Z,0
2017-03-14T02:40:03.652Z,0
2017-03-14T02:41:03.638Z,0
2017-03-14T02:42:03.225Z,0
2017-03-14T02:43:03.574Z,0
2017-03-14T02:44:03.565Z,0
2017-03-14T02:45:03.165Z,0
2017-03-14T02:46:03.555Z,0
2017-03-14T02:47:03.121Z,0
2017-03-14T02:48:03.449Z,0
2017-03-14T02:49:03.444Z,0
2017-03-14T02:50:03.047Z,0
2017-03-14T02:51:02.615Z,0
2017-03-14T02:52:02.992Z,0
2017-03-14T02:53:02.975Z,0
2017-03-14T02:54:02.954Z,0
2017-03-14T02:55:02.942Z,0
2017-03-14T02:56:03.290Z,0
2017-03-14T02:57:03.275Z,0
2017-03-14T02:58:03.259Z,0
2017-03-14T02:59:03.216Z,0
2017-03-14T03:00:03.197Z,0
2017-03-14T03:01:03.178Z,0
2017-03-14T03:02:03.186Z,0
2017-03-14T03:03:03.123Z,0
2017-03-14T03:04:03.107Z,0
2017-03-14T03:05:03.084Z,0
2017-03-14T03:06:02.684Z,0
2017-03-14T03:07:02.644Z,0
2017-03-14T03:08:03.013Z,0
2017-03-14T03:09:03.016Z,0
2017-03-14T03:10:02.991Z,0
2017-03-14T03:11:02.962Z,0
2017-03-14T03:12:02.958Z,0
2017-03-14T03:13:02.895Z,0
2017-03-14T03:14:02.894Z,0
2017-03-14T03:15:02.874Z,0
2017-03-14T03:16:02.825Z,0
2017-03-14T03:17:02.821Z,0
2017-03-14T03:18:02.793Z,0
2017-03-14T03:19:02.772Z,0
2017-03-14T03:20:02.745Z,0
2017-03-14T03:21:02.338Z,0
2017-03-14T03:22:01.933Z,0
2017-03-14T03:23:02.699Z,0
2017-03-14T03:24:02.662Z,0
2017-03-14T03:25:02.632Z,0
2017-03-14T03:26:02.605Z,0
2017-03-14T03:27:02.602Z,0
2017-03-14T03:28:02.571Z,0
2017-03-14T03:29:02.161Z,0
2017-03-14T03:30:02.528Z,0
2017-03-14T03:31:02.498Z,0
2017-03-14T03:32:02.463Z,0
2017-03-14T03:33:02.465Z,0
2017-03-14T03:34:02.440Z,0
2017-03-14T03:35:02.409Z,0
2017-03-14T03:36:02.400Z,0
2017-03-14T03:37:02.368Z,0
2017-03-14T03:38:02.357Z,0
2017-03-14T03:39:01.955Z,0
2017-03-14T03:40:01.924Z,0
2017-03-14T03:41:02.292Z,0
2017-03-14T03:42:02.253Z,0
2017-03-14T03:43:02.232Z,0
2017-03-14T03:44:02.211Z,0
2017-03-14T03:45:02.192Z,0
2017-03-14T03:46:02.170Z,0
2017-03-14T03:47:02.137Z,0
2017-03-14T03:48:01.740Z,0
2017-03-14T03:49:02.111Z,0
2017-03-14T03:50:02.068Z,0
2017-03-14T03:51:02.071Z,0
2017-03-14T03:52:02.033Z,0
2017-03-14T03:53:02.030Z,0
2017-03-14T03:54:01.995Z,0
2017-03-14T03:55:02.054Z,0
2017-03-14T03:56:01.170Z,0
2017-03-14T03:57:01.537Z,0
2017-03-14T03:58:01.521Z,0
2017-03-14T03:59:01.889Z,0
2017-03-14T04:00:01.482Z,0
2017-03-14T04:01:01.825Z,0
2017-03-14T04:02:01.804Z,0
2017-03-14T04:03:01.400Z,0
2017-03-14T04:04:01.765Z,0
2017-03-14T04:05:01.740Z,0
2017-03-14T04:06:01.705Z,0
2017-03-14T04:07:01.695Z,0
2017-03-14T04:08:01.682Z,0
2017-03-14T04:09:01.640Z,0
2017-03-14T04:10:01.624Z,0
2017-03-14T04:11:01.620Z,0
2017-03-14T04:12:01.600Z,0
2017-03-14T04:13:01.564Z,0
2017-03-14T04:14:01.534Z,0
2017-03-14T04:15:01.144Z,0
2017-03-14T04:16:01.487Z,0
2017-03-14T04:17:01.486Z,0
2017-03-14T04:18:01.066Z,0
2017-03-14T04:19:01.037Z,0
2017-03-14T04:20:00.641Z,0
2017-03-14T04:21:01.002Z,0
2017-03-14T04:22:00.971Z,0
2017-03-14T04:23:00.952Z,0
2017-03-14T04:24:01.343Z,0
2017-03-14T04:25:00.903Z,0
2017-03-14T04:26:01.260Z,0
2017-03-14T04:27:01.242Z,0
2017-03-14T04:28:00.834Z,0
2017-03-14T04:29:00.442Z,0
2017-03-14T04:30:01.177Z,0
2017-03-14T04:31:01.158Z,0
2017-03-14T04:32:01.132Z,0
2017-03-14T04:33:01.114Z,0
2017-03-14T04:34:01.078Z,0
2017-03-14T04:35:00.712Z,0
2017-03-14T04:36:01.048Z,0
2017-03-14T04:37:01.010Z,0
2017-03-14T04:38:01.037Z,0
2017-03-14T04:39:00.586Z,0
2017-03-14T04:40:00.968Z,0
2017-03-14T04:41:00.918Z,0
2017-03-14T04:42:00.910Z,0
2017-03-14T04:43:00.898Z,0
2017-03-14T04:44:00.885Z,0
2017-03-14T04:45:00.840Z,0
2017-03-14T04:46:00.839Z,0
2017-03-14T04:47:00.790Z,0
2017-03-14T04:48:00.384Z,0
2017-03-14T04:49:00.767Z,0
2017-03-14T04:50:00.722Z,0
2017-03-14T04:51:00.705Z,0
2017-03-14T04:52:00.692Z,0
2017-03-14T04:53:00.678Z,0
2017-03-14T04:54:00.253Z,0
2017-03-14T04:55:00.628Z,0
2017-03-14T04:56:00.209Z,0
2017-03-14T04:57:00.189Z,0
2017-03-14T04:58:00.163Z,0
2017-03-14T04:59:00.135Z,4
2017-03-14T05:00:00.515Z,4
2017-03-14T05:01:00.500Z,0
2017-03-14T05:02:00.465Z,4
2017-03-14T05:03:00.059Z,4
2017-03-14T05:04:00.415Z,4
2017-03-14T05:04:59.995Z,8
2017-03-14T05:05:59.596Z,8
2017-03-14T05:07:00.347Z,8
2017-03-14T05:08:00.329Z,12
2017-03-14T05:09:00.291Z,16
2017-03-14T05:10:00.279Z,16
2017-03-14T05:11:00.248Z,20
2017-03-14T05:11:59.826Z,28
2017-03-14T05:12:59.818Z,32
2017-03-14T05:14:00.182Z,44
2017-03-14T05:14:59.780Z,52
2017-03-14T05:16:00.137Z,64
2017-03-14T05:17:00.164Z,72
2017-03-14T05:18:00.102Z,88
2017-03-14T05:18:59.713Z,104
2017-03-14T05:19:59.657Z,120
2017-03-14T05:20:59.631Z,136
2017-03-14T05:21:59.994Z,160
2017-03-14T05:23:00.007Z,184
2017-03-14T05:23:59.578Z,212
2017-03-14T05:24:59.933Z,252
2017-03-14T05:25:59.909Z,284
2017-03-14T05:26:59.891Z,320
2017-03-14T05:27:59.874Z,368
2017-03-14T05:28:59.848Z,416
2017-03-14T05:29:59.809Z,468
2017-03-14T05:30:59.817Z,524
2017-03-14T05:31:59.781Z,580
2017-03-14T05:32:59.757Z,644
2017-03-14T05:33:59.733Z,712
2017-03-14T05:34:59.703Z,788
2017-03-14T05:35:59.698Z,864
2017-03-14T05:36:59.647Z,940
2017-03-14T05:37:58.872Z,1020
2017-03-14T05:38:59.620Z,1116
2017-03-14T05:39:59.617Z,1216
2017-03-14T05:40:59.578Z,1316
2017-03-14T05:41:59.560Z,1520
2017-03-14T05:42:59.554Z,1696
2017-03-14T05:43:59.507Z,1924
2017-03-14T05:44:59.499Z,2072
2017-03-14T05:45:59.495Z,2228
2017-03-14T05:46:59.083Z,2384
2017-03-14T05:47:59.444Z,2572
2017-03-14T05:48:59.399Z,2616
2017-03-14T05:49:59.403Z,2316
2017-03-14T05:50:59.384Z,2224
2017-03-14T05:51:59.331Z,2616
2017-03-14T05:52:59.329Z,3028
2017-03-14T05:53:59.285Z,3276
2017-03-14T05:54:58.897Z,3744
2017-03-14T05:55:59.288Z,3780
2017-03-14T05:56:58.884Z,3940
2017-03-14T05:57:58.844Z,3540
2017-03-14T05:58:59.187Z,3408
2017-03-14T05:59:59.153Z,3560
2017-03-14T06:00:59.148Z,3844
2017-03-14T06:01:59.134Z,4320
2017-03-14T06:02:59.089Z,4624
2017-03-14T06:03:59.083Z,4660
2017-03-14T06:04:59.063Z,4660
2017-03-14T06:05:59.046Z,4668
2017-03-14T06:06:58.640Z,4948
2017-03-14T06:07:58.987Z,4616
2017-03-14T06:08:58.605Z,4888
2017-03-14T06:09:58.961Z,5356
2017-03-14T06:10:58.947Z,5676
2017-03-14T06:11:58.902Z,6436
2017-03-14T06:12:58.908Z,7112
2017-03-14T06:13:58.867Z,7384
2017-03-14T06:14:58.850Z,7824
2017-03-14T06:15:58.859Z,8056
2017-03-14T06:16:58.813Z,8616
2017-03-14T06:17:58.777Z,9188
2017-03-14T06:18:58.785Z,9484
2017-03-14T06:19:58.753Z,10148
2017-03-14T06:20:58.741Z,11212
2017-03-14T06:21:58.337Z,12468
2017-03-14T06:22:58.663Z,12068
2017-03-14T06:23:58.677Z,12040
2017-03-14T06:24:57.863Z,12124
2017-03-14T06:25:58.616Z,12232
2017-03-14T06:26:58.610Z,12264
2017-03-14T06:27:58.568Z,12028
2017-03-14T06:28:58.554Z,11200
2017-03-14T06:29:58.549Z,10444
2017-03-14T06:30:58.527Z,10132
2017-03-14T06:31:58.504Z,9252
2017-03-14T06:32:58.501Z,9560
2017-03-14T06:33:58.465Z,10280
2017-03-14T06:34:58.446Z,14612
2017-03-14T06:35:58.413Z,18240
2017-03-14T06:36:58.384Z,21248
2017-03-14T06:37:57.996Z,21408
2017-03-14T06:38:58.360Z,18656
2017-03-14T06:39:58.336Z,14048
2017-03-14T06:40:58.308Z,19680
2017-03-14T06:41:58.284Z,17216
2017-03-14T06:42:58.275Z,19168
2017-03-14T06:43:58.255Z,19392
2017-03-14T06:44:57.863Z,15936
2017-03-14T06:45:58.203Z,17856
2017-03-14T06:46:58.209Z,19584
2017-03-14T06:47:58.183Z,22432
2017-03-14T06:48:58.146Z,21952
2017-03-14T06:49:57.746Z,27040
2017-03-14T06:50:58.124Z,28416
2017-03-14T06:51:58.126Z,27520
2017-03-14T06:52:58.115Z,30752
2017-03-14T06:53:58.074Z,31968
2017-03-14T06:54:58.038Z,27936
2017-03-14T06:55:58.038Z,31040
2017-03-14T06:56:58.008Z,28992
2017-03-14T06:57:57.997Z,29056
2017-03-14T06:58:57.985Z,30912
2017-03-14T06:59:57.967Z,30816
2017-03-14T07:00:57.953Z,29536
2017-03-14T07:01:57.936Z,26176
2017-03-14T07:02:57.510Z,24576
2017-03-14T07:03:57.861Z,27200
2017-03-14T07:04:57.868Z,25376
2017-03-14T07:05:57.859Z,26496
2017-03-14T07:06:57.827Z,28384
2017-03-14T07:07:57.806Z,28448
2017-03-14T07:08:57.789Z,31232
2017-03-14T07:09:57.805Z,32320
2017-03-14T07:10:57.760Z,32704
2017-03-14T07:11:57.754Z,31104
2017-03-14T07:12:57.746Z,33696
2017-03-14T07:13:57.725Z,33312
2017-03-14T07:14:57.706Z,35552
2017-03-14T07:15:57.685Z,31648
2017-03-14T07:16:57.673Z,33248
2017-03-14T07:17:57.254Z,36544
2017-03-14T07:18:57.251Z,33696
2017-03-14T07:19:57.599Z,28480
2017-03-14T07:20:57.603Z,34336
2017-03-14T07:21:57.573Z,33472
2017-03-14T07:22:57.190Z,32448
2017-03-14T07:23:57.562Z,30496
2017-03-14T07:24:57.161Z,35808
2017-03-14T07:25:57.507Z,37760
2017-03-14T07:26:57.133Z,36608
2017-03-14T07:27:57.099Z,34272
2017-03-14T07:28:57.096Z,34976
2017-03-14T07:29:57.076Z,37824
2017-03-14T07:30:57.454Z,36640
2017-03-14T07:31:57.424Z,32768
2017-03-14T07:32:57.415Z,38624
2017-03-14T07:33:57.395Z,37952
2017-03-14T07:34:57.004Z,38272
2017-03-14T07:35:57.396Z,35936
2017-03-14T07:36:57.345Z,35840
2017-03-14T07:37:57.343Z,41344
2017-03-14T07:38:57.349Z,45472
2017-03-14T07:39:56.934Z,44384
2017-03-14T07:40:57.315Z,37856
2017-03-14T07:41:57.278Z,29344
2017-03-14T07:42:57.270Z,27072
2017-03-14T07:43:56.874Z,26304
2017-03-14T07:44:56.870Z,30304
2017-03-14T07:45:57.234Z,40448
2017-03-14T07:46:57.218Z,45952
2017-03-14T07:47:57.172Z,51808
2017-03-14T07:48:57.183Z,54080
2017-03-14T07:49:57.166Z,47616
2017-03-14T07:50:57.148Z,43360
2017-03-14T07:51:57.124Z,40768
2017-03-14T07:52:56.730Z,42784
2017-03-14T07:53:56.714Z,40672
2017-03-14T07:54:57.072Z,38432
2017-03-14T07:55:57.068Z,36800
2017-03-14T07:56:57.058Z,37888
2017-03-14T07:57:57.043Z,40256
2017-03-14T07:58:57.010Z,44320
2017-03-14T07:59:57.011Z,47424
2017-03-14T08:00:56.597Z,46208
2017-03-14T08:01:56.969Z,43584
2017-03-14T08:02:56.938Z,43392
2017-03-14T08:03:56.955Z,40864
2017-03-14T08:04:56.943Z,41824
2017-03-14T08:05:56.527Z,45088
2017-03-14T08:06:56.900Z,42400
2017-03-14T08:07:56.502Z,45184
2017-03-14T08:08:56.864Z,38816
2017-03-14T08:09:56.844Z,31744
2017-03-14T08:10:56.805Z,30528
2017-03-14T08:11:56.792Z,34656
2017-03-14T08:12:56.809Z,45120
2017-03-14T08:13:56.773Z,46560
2017-03-14T08:14:56.782Z,41472
2017-03-14T08:15:56.759Z,38816
2017-03-14T08:16:56.725Z,40096
2017-03-14T08:17:56.718Z,46560
2017-03-14T08:18:56.701Z,50944
2017-03-14T08:19:56.282Z,47136
2017-03-14T08:20:56.658Z,44448
2017-03-14T08:21:56.645Z,44192
2017-03-14T08:22:56.614Z,45184
2017-03-14T08:23:56.593Z,44640
2017-03-14T08:24:56.606Z,48576
2017-03-14T08:25:56.190Z,47776
2017-03-14T08:26:56.562Z,41472
2017-03-14T08:27:56.537Z,39872
2017-03-14T08:28:56.536Z,46176
2017-03-14T08:29:56.513Z,51584
2017-03-14T08:30:56.507Z,53184
2017-03-14T08:31:56.477Z,53216
2017-03-14T08:32:56.464Z,52384
2017-03-14T08:33:56.053Z,54336
2017-03-14T08:34:56.433Z,53600
2017-03-14T08:35:56.417Z,51360
2017-03-14T08:36:56.026Z,55040
2017-03-14T08:37:56.027Z,59104
2017-03-14T08:38:56.362Z,58016
2017-03-14T08:39:56.351Z,51136
2017-03-14T08:40:55.549Z,48576
2017-03-14T08:41:55.949Z,44448
2017-03-14T08:42:55.931Z,45824
2017-03-14T08:43:55.912Z,49344
2017-03-14T08:44:55.894Z,50880
2017-03-14T08:45:56.276Z,54464
2017-03-14T08:46:55.848Z,56608
2017-03-14T08:47:55.850Z,60608
2017-03-14T08:48:56.235Z,60992
2017-03-14T08:49:56.213Z,59040
2017-03-14T08:50:56.205Z,56224
2017-03-14T08:51:56.173Z,53920
2017-03-14T08:52:56.156Z,65856
2017-03-14T08:53:56.155Z,63136
2017-03-14T08:54:56.136Z,59616
2017-03-14T08:55:55.756Z,56128
2017-03-14T08:56:56.113Z,47200
2017-03-14T08:57:56.086Z,46112
2017-03-14T08:58:56.072Z,44896
2017-03-14T08:59:56.069Z,46464
2017-03-14T09:00:56.035Z,48544
2017-03-14T09:01:56.052Z,54304
2017-03-14T09:02:56.003Z,58880
2017-03-14T09:03:55.995Z,48256
2017-03-14T09:04:55.990Z,59200
2017-03-14T09:05:55.994Z,55840
2017-03-14T09:06:55.569Z,52032
2017-03-14T09:07:55.951Z,51072
2017-03-14T09:08:55.931Z,49344
2017-03-14T09:09:55.903Z,48352
2017-03-14T09:10:55.531Z,58528
2017-03-14T09:11:55.897Z,63328
2017-03-14T09:12:55.872Z,67712
2017-03-14T09:13:55.870Z,71776
2017-03-14T09:14:55.848Z,67296
2017-03-14T09:15:55.851Z,65248
2017-03-14T09:16:55.821Z,72512
2017-03-14T09:17:55.813Z,75328
2017-03-14T09:18:55.805Z,84224
2017-03-14T09:19:55.822Z,99296
2017-03-14T09:20:55.775Z,104256
2017-03-14T09:21:55.386Z,92544
2017-03-14T09:22:55.770Z,81792
2017-03-14T09:23:55.780Z,81120
2017-03-14T09:24:55.725Z,84448
2017-03-14T09:25:55.714Z,86784
2017-03-14T09:26:55.695Z,88000
2017-03-14T09:27:55.677Z,86496
2017-03-14T09:28:55.674Z,83840
2017-03-14T09:29:55.658Z,79264
2017-03-14T09:30:55.656Z,76672
2017-03-14T09:31:55.636Z,73408
2017-03-14T09:32:55.630Z,61504
2017-03-14T09:33:55.618Z,67424
2017-03-14T09:34:55.615Z,63008
2017-03-14T09:35:55.585Z,65664
2017-03-14T09:36:55.594Z,66080
2017-03-14T09:37:55.598Z,63008
2017-03-14T09:38:55.573Z,63936
2017-03-14T09:39:55.539Z,67392
2017-03-14T09:40:55.523Z,62944
2017-03-14T09:41:55.524Z,62208
2017-03-14T09:42:55.502Z,63904
2017-03-14T09:43:55.505Z,63936
2017-03-14T09:44:55.463Z,61664
2017-03-14T09:45:55.462Z,61504
2017-03-14T09:46:55.082Z,73856
2017-03-14T09:47:55.052Z,70656
2017-03-14T09:48:55.441Z,67264
2017-03-14T09:49:55.429Z,71776
2017-03-14T09:50:55.436Z,67200
2017-03-14T09:51:55.410Z,78272
2017-03-14T09:52:55.384Z,77856
2017-03-14T09:53:54.996Z,80864
2017-03-14T09:54:55.362Z,75712
2017-03-14T09:55:55.363Z,66176
2017-03-14T09:56:54.958Z,70688
2017-03-14T09:57:54.950Z,68800
2017-03-14T09:58:55.318Z,77184
2017-03-14T09:59:55.306Z,77088
2017-03-14T10:00:54.926Z,78656
2017-03-14T10:01:55.269Z,77920
2017-03-14T10:02:55.271Z,86880
2017-03-14T10:03:55.247Z,77952
2017-03-14T10:04:54.878Z,77664
2017-03-14T10:05:54.842Z,79744
2017-03-14T10:06:54.837Z,72832
2017-03-14T10:07:54.823Z,87776
2017-03-14T10:08:54.801Z,83520
2017-03-14T10:09:55.188Z,79328
2017-03-14T10:10:54.793Z,76288
2017-03-14T10:11:54.773Z,67168
2017-03-14T10:12:54.768Z,80608
2017-03-14T10:13:55.154Z,80800
2017-03-14T10:14:55.109Z,79648
2017-03-14T10:15:55.126Z,91744
2017-03-14T10:16:55.099Z,91072
2017-03-14T10:17:55.062Z,77888
2017-03-14T10:18:55.073Z,94400
2017-03-14T10:19:54.692Z,114560
2017-03-14T10:20:55.046Z,97120
2017-03-14T10:21:55.043Z,82400
2017-03-14T10:22:54.784Z,98240
2017-03-14T10:23:54.753Z,97472
2017-03-14T10:24:54.747Z,71104
2017-03-14T10:25:54.718Z,67296
2017-03-14T10:26:54.725Z,63424
2017-03-14T10:27:54.700Z,66784
2017-03-14T10:28:54.701Z,59456
2017-03-14T10:29:54.668Z,61824
2017-03-14T10:30:54.674Z,66976
2017-03-14T10:31:54.655Z,63040
2017-03-14T10:32:54.633Z,61376
2017-03-14T10:33:54.622Z,60896
2017-03-14T10:34:54.302Z,61152
2017-03-14T10:35:54.592Z,64832
2017-03-14T10:36:54.589Z,51744
2017-03-14T10:37:53.968Z,74368
2017-03-14T10:38:54.246Z,63232
2017-03-14T10:39:54.531Z,109376
2017-03-14T10:40:54.540Z,93312
2017-03-14T10:41:54.502Z,138272
2017-03-14T10:42:54.499Z,96640
2017-03-14T10:43:54.486Z,121632
2017-03-14T10:44:54.462Z,122368
2017-03-14T10:45:54.445Z,100576
2017-03-14T10:46:54.418Z,82048
2017-03-14T10:47:54.418Z,74496
2017-03-14T10:48:54.416Z,72608
2017-03-14T10:49:54.408Z,67936
2017-03-14T10:50:54.383Z,60320
2017-03-14T10:51:54.379Z,60224
2017-03-14T10:52:54.363Z,61600
2017-03-14T10:53:54.339Z,58336
2017-03-14T10:54:54.340Z,65376
2017-03-14T10:55:54.320Z,54400
2017-03-14T10:56:54.322Z,66272
2017-03-14T10:57:54.010Z,60864
2017-03-14T10:58:53.682Z,51360
2017-03-14T10:59:53.981Z,55712
2017-03-14T11:00:54.262Z,46464
2017-03-14T11:01:53.936Z,46944
2017-03-14T11:02:54.229Z,43904
2017-03-14T11:03:53.901Z,39488
2017-03-14T11:04:53.889Z,40224
2017-03-14T11:05:53.857Z,49184
2017-03-14T11:06:53.869Z,54912
2017-03-14T11:07:53.866Z,58176
2017-03-14T11:08:53.845Z,64480
2017-03-14T11:09:54.132Z,74272
2017-03-14T11:10:53.851Z,99264
2017-03-14T11:11:53.804Z,130112
2017-03-14T11:12:53.778Z,147360
2017-03-14T11:13:53.768Z,122400
2017-03-14T11:14:53.767Z,100480
2017-03-14T11:15:53.742Z,101760
2017-03-14T11:16:53.726Z,123648
2017-03-14T11:17:54.002Z,143456
2017-03-14T11:18:53.993Z,143520
2017-03-14T11:19:53.692Z,121248
2017-03-14T11:20:53.949Z,106688
2017-03-14T11:21:53.644Z,101184
2017-03-14T11:22:53.945Z,98720
2017-03-14T11:23:53.934Z,112512
2017-03-14T11:24:53.893Z,137792
2017-03-14T11:25:53.912Z,146464
2017-03-14T11:26:53.892Z,123808
2017-03-14T11:27:53.889Z,101728
2017-03-14T11:28:53.870Z,96096
2017-03-14T11:29:53.856Z,96160
2017-03-14T11:30:53.826Z,94912
2017-03-14T11:31:53.820Z,113472
2017-03-14T11:32:53.815Z,135040
2017-03-14T11:33:53.781Z,128960
2017-03-14T11:34:53.773Z,100608
2017-03-14T11:35:53.763Z,88704
2017-03-14T11:36:53.754Z,87744
2017-03-14T11:37:53.715Z,91904
2017-03-14T11:38:53.727Z,96224
2017-03-14T11:39:53.725Z,100352
2017-03-14T11:40:53.692Z,107360
2017-03-14T11:41:53.662Z,114240
2017-03-14T11:42:53.653Z,108736
2017-03-14T11:43:53.633Z,107680
2017-03-14T11:44:53.625Z,114080
2017-03-14T11:45:53.612Z,114336
2017-03-14T11:46:53.593Z,108448
2017-03-14T11:47:53.574Z,105984
2017-03-14T11:48:53.249Z,111456
2017-03-14T11:49:53.547Z,130432
2017-03-14T11:50:53.513Z,144544
2017-03-14T11:51:53.515Z,120768
2017-03-14T11:52:53.494Z,95328
2017-03-14T11:53:53.457Z,84096
2017-03-14T11:54:52.850Z,86432
2017-03-14T11:55:53.418Z,84320
2017-03-14T11:56:53.417Z,89984
2017-03-14T11:57:53.391Z,92608
2017-03-14T11:58:53.376Z,88992
2017-03-14T11:59:53.068Z,90016
2017-03-14T12:00:53.352Z,89344
2017-03-14T12:01:53.020Z,85728
2017-03-14T12:02:52.707Z,89408
2017-03-14T12:03:52.685Z,90528
2017-03-14T12:04:52.668Z,94560
2017-03-14T12:05:52.655Z,98976
2017-03-14T12:06:52.933Z,101440
2017-03-14T12:07:53.223Z,105248
2017-03-14T12:08:52.917Z,112352
2017-03-14T12:09:52.889Z,121184
2017-03-14T12:10:52.857Z,110784
2017-03-14T12:11:52.851Z,99968
2017-03-14T12:12:52.841Z,79392
2017-03-14T12:13:53.120Z,87264
2017-03-14T12:14:53.092Z,90848
2017-03-14T12:15:52.787Z,89120
2017-03-14T12:16:52.764Z,86976
2017-03-14T12:17:53.066Z,83648
2017-03-14T12:18:53.033Z,82176
2017-03-14T12:19:52.707Z,81248
2017-03-14T12:20:52.999Z,81344
2017-03-14T12:21:52.675Z,81216
2017-03-14T12:22:52.674Z,82688
2017-03-14T12:23:52.638Z,83872
2017-03-14T12:24:52.630Z,85472
2017-03-14T12:25:52.899Z,88640
2017-03-14T12:26:52.888Z,85504
2017-03-14T12:27:52.884Z,86720
2017-03-14T12:28:52.842Z,83680
2017-03-14T12:29:52.825Z,79456
2017-03-14T12:30:52.823Z,73728
2017-03-14T12:31:52.785Z,72800
2017-03-14T12:32:52.788Z,73312
2017-03-14T12:33:52.763Z,76800
2017-03-14T12:34:52.458Z,81568
2017-03-14T12:35:52.732Z,83584
2017-03-14T12:36:52.728Z,84448
2017-03-14T12:37:52.695Z,84672
2017-03-14T12:38:52.694Z,85280
2017-03-14T12:39:52.675Z,85504
2017-03-14T12:40:52.637Z,85504
2017-03-14T12:41:52.317Z,82560
2017-03-14T12:42:51.704Z,79104
2017-03-14T12:43:52.623Z,77824
2017-03-14T12:44:52.584Z,77376
2017-03-14T12:45:52.261Z,78272
2017-03-14T12:46:52.557Z,77056
2017-03-14T12:47:52.512Z,80992
2017-03-14T12:48:52.213Z,92576
2017-03-14T12:49:52.511Z,106624
2017-03-14T12:50:52.169Z,95808
2017-03-14T12:51:52.461Z,72640
2017-03-14T12:52:52.455Z,65280
2017-03-14T12:53:52.435Z,66720
2017-03-14T12:54:52.416Z,68704
2017-03-14T12:55:52.389Z,68768
2017-03-14T12:56:52.073Z,59040
2017-03-14T12:57:52.373Z,71232
2017-03-14T12:58:52.341Z,72832
2017-03-14T12:59:52.345Z,84256
2017-03-14T13:00:52.330Z,83936
2017-03-14T13:01:52.301Z,58880
2017-03-14T13:02:52.316Z,36608
2017-03-14T13:03:52.259Z,51840
2017-03-14T13:04:51.952Z,68896
2017-03-14T13:05:52.214Z,76480
2017-03-14T13:06:52.231Z,80544
2017-03-14T13:07:51.910Z,80448
2017-03-14T13:08:52.170Z,82496
2017-03-14T13:09:52.179Z,72704
2017-03-14T13:10:51.836Z,98400
2017-03-14T13:11:52.116Z,97760
2017-03-14T13:12:52.124Z,74112
2017-03-14T13:13:51.801Z,60960
2017-03-14T13:14:51.482Z,62144
2017-03-14T13:15:52.075Z,63840
2017-03-14T13:16:51.766Z,54560
2017-03-14T13:17:51.730Z,55552
2017-03-14T13:18:51.714Z,61248
2017-03-14T13:19:51.692Z,57824
2017-03-14T13:20:51.676Z,61152
2017-03-14T13:21:51.672Z,57152
2017-03-14T13:22:51.969Z,45536
2017-03-14T13:23:51.633Z,45184
2017-03-14T13:24:51.923Z,48736
2017-03-14T13:25:51.601Z,52800
2017-03-14T13:26:51.594Z,55712
2017-03-14T13:27:51.568Z,53056
2017-03-14T13:28:51.557Z,53504
2017-03-14T13:29:51.530Z,46656
2017-03-14T13:30:51.504Z,55360
2017-03-14T13:31:51.809Z,61504
2017-03-14T13:32:51.461Z,57984
2017-03-14T13:33:51.468Z,55520